createdAt,value
2019-02-08T00:00:44.832Z,1.74
2019-02-08T00:03:13.380Z,1.73
2019-02-08T00:05:42.018Z,1.72
2019-02-08T00:08:10.643Z,1.74
2019-02-08T00:10:39.472Z,1.67
2019-02-08T00:13:08.204Z,1.66
2019-02-08T00:15:36.847Z,1.67
2019-02-08T00:18:05.491Z,1.60
2019-02-08T00:20:34.000Z,1.63
2019-02-08T00:23:02.618Z,1.65
2019-02-08T00:25:31.141Z,1.68
2019-02-08T00:27:59.955Z,1.72
2019-02-08T00:30:29.790Z,1.73
2019-02-08T00:32:58.452Z,1.76
2019-02-08T00:35:27.236Z,1.83
2019-02-08T00:37:55.733Z,1.88
2019-02-08T00:40:25.395Z,1.75
2019-02-08T00:42:55.052Z,1.71
2019-02-08T00:45:24.339Z,1.68
2019-02-08T00:47:52.905Z,1.73
2019-02-08T00:50:23.636Z,1.77
2019-02-08T00:52:52.588Z,2.08
2019-02-08T00:55:21.567Z,2.51
2019-02-08T00:57:50.235Z,2.82
2019-02-08T01:00:19.946Z,2.89
2019-02-08T01:02:50.200Z,3.02
2019-02-08T01:05:24.715Z,2.81
2019-02-08T01:07:53.475Z,2.88
2019-02-08T01:10:27.779Z,2.79
2019-02-08T01:12:56.682Z,2.81
2019-02-08T01:16:05.029Z,2.84
2019-02-08T01:18:33.479Z,2.77
2019-02-08T01:21:03.694Z,3.01
2019-02-08T01:23:32.116Z,3.19
2019-02-08T01:26:00.578Z,3.18
2019-02-08T01:28:29.003Z,3.18
2019-02-08T01:30:57.435Z,3.13
2019-02-08T01:33:25.892Z,3.25
2019-02-08T01:35:54.316Z,3.27
2019-02-08T01:38:22.829Z,3.28
2019-02-08T01:41:10.461Z,3.34
2019-02-08T01:43:38.908Z,3.25
2019-02-08T01:46:26.561Z,3.28
2019-02-08T01:49:34.895Z,3.32
2019-02-08T01:52:22.616Z,3.32
2019-02-08T01:54:51.044Z,3.54
2019-02-08T01:57:19.471Z,3.31
2019-02-08T01:59:47.919Z,3.55
2019-02-08T02:02:16.343Z,3.37
2019-02-08T02:05:04.112Z,3.55
2019-02-08T02:07:32.536Z,3.75
2019-02-08T02:12:54.058Z,3.43
2019-02-08T02:16:04.098Z,3.32
2019-02-08T02:18:32.746Z,3.26
2019-02-08T02:21:01.231Z,3.10
2019-02-08T02:23:29.682Z,2.89
2019-02-08T02:25:58.153Z,2.73
2019-02-08T02:28:45.972Z,2.42
2019-02-08T02:31:14.467Z,2.36
2019-02-08T02:36:36.703Z,2.08
2019-02-08T02:39:45.157Z,2.30
2019-02-08T02:42:13.580Z,1.90
2019-02-08T02:44:42.013Z,2.25
2019-02-08T02:49:44.456Z,2.17
2019-02-08T02:52:12.925Z,2.27
2019-02-08T02:54:41.347Z,2.25
2019-02-08T02:57:09.778Z,1.97
2019-02-08T02:59:57.548Z,1.96
2019-02-08T03:02:25.977Z,1.79
2019-02-08T03:04:54.398Z,1.54
2019-02-08T03:07:22.862Z,1.37
2019-02-08T03:09:51.283Z,1.32
2019-02-08T03:12:19.715Z,1.34
2019-02-08T03:15:07.360Z,1.50
2019-02-08T03:17:55.124Z,1.67
2019-02-08T03:21:03.550Z,1.86
2019-02-08T03:23:31.975Z,1.89
2019-02-08T03:26:00.402Z,1.91
2019-02-08T03:28:28.887Z,2.01
2019-02-08T03:31:16.505Z,2.03
2019-02-08T03:36:18.796Z,2.20
2019-02-08T03:39:06.573Z,2.24
2019-02-08T03:41:35.068Z,2.36
2019-02-08T03:44:43.437Z,2.40
2019-02-08T03:47:11.864Z,2.38
2019-02-08T03:49:40.296Z,2.48
2019-02-08T03:54:42.538Z,2.63
2019-02-08T03:57:10.969Z,2.73
2019-02-08T03:59:58.764Z,2.88
2019-02-08T04:02:27.192Z,2.79
2019-02-08T04:05:35.590Z,2.71
2019-02-08T04:08:43.928Z,2.68
2019-02-08T04:11:31.573Z,2.64
2019-02-08T04:14:00.005Z,2.84
2019-02-08T04:16:28.528Z,2.98
2019-02-08T04:18:56.993Z,3.08
2019-02-08T04:21:44.605Z,3.25
2019-02-08T04:24:53.006Z,3.30
2019-02-08T04:27:21.404Z,3.39
2019-02-08T04:29:49.904Z,3.48
2019-02-08T04:34:52.676Z,3.55
2019-02-08T04:39:54.845Z,3.70
2019-02-08T04:42:23.264Z,3.79
2019-02-08T04:48:24.798Z,3.93
2019-02-08T04:51:12.481Z,3.95
2019-02-08T04:53:40.908Z,4.06
2019-02-08T04:56:09.335Z,4.04
2019-02-08T04:58:37.804Z,4.16
2019-02-08T05:04:14.410Z,4.33
2019-02-08T05:06:42.863Z,4.42
2019-02-08T05:09:11.260Z,4.48
2019-02-08T05:11:59.045Z,4.49
2019-02-08T05:14:27.549Z,4.56
2019-02-08T05:17:15.333Z,4.61
2019-02-08T05:20:03.082Z,4.67
2019-02-08T05:22:31.578Z,4.80
2019-02-08T05:25:00.003Z,4.87
2019-02-08T05:27:28.445Z,4.78
2019-02-08T05:32:30.637Z,4.75
2019-02-08T05:34:59.078Z,4.80
2019-02-08T05:40:01.929Z,4.87
2019-02-08T05:43:10.302Z,4.94
2019-02-08T05:45:57.972Z,4.93
2019-02-08T05:51:00.875Z,5.00
2019-02-08T05:56:22.870Z,4.98
2019-02-08T06:01:24.845Z,4.88
2019-02-08T06:03:53.288Z,4.97
2019-02-08T06:08:56.387Z,5.17
2019-02-08T06:11:24.840Z,5.11
2019-02-08T06:13:53.263Z,5.11
2019-02-08T06:16:21.698Z,5.28
2019-02-08T06:19:09.471Z,5.33
2019-02-08T06:21:37.896Z,5.15
2019-02-08T06:24:06.324Z,5.21
2019-02-08T06:26:34.816Z,5.17
2019-02-08T06:29:22.437Z,5.23
2019-02-08T06:31:50.888Z,5.24
2019-02-08T06:34:38.639Z,5.19
2019-02-08T06:39:40.998Z,5.39
2019-02-08T06:42:09.430Z,5.27
2019-02-08T06:47:12.199Z,5.29
2019-02-08T06:49:40.695Z,5.33
2019-02-08T06:52:09.126Z,5.37
2019-02-08T06:54:56.782Z,5.29
2019-02-08T07:00:54.316Z,5.34
2019-02-08T07:06:31.362Z,5.32
2019-02-08T07:09:18.912Z,5.34
2019-02-08T07:15:01.616Z,5.36
2019-02-08T07:20:59.106Z,5.39
2019-02-08T07:24:05.939Z,5.45
2019-02-08T07:26:53.563Z,5.46
2019-02-08T07:30:01.925Z,5.52
2019-02-08T07:32:49.505Z,5.52
2019-02-08T07:35:57.874Z,5.50
2019-02-08T07:39:06.318Z,5.69
2019-02-08T07:42:14.661Z,5.65
2019-02-08T07:45:23.355Z,5.63
2019-02-08T07:48:31.715Z,5.64
2019-02-08T07:51:40.252Z,5.74
2019-02-08T08:00:31.012Z,5.87
2019-02-08T08:03:39.381Z,6.03
2019-02-08T08:06:27.109Z,6.24
2019-02-08T08:09:35.502Z,6.08
2019-02-08T08:15:39.437Z,6.29
2019-02-08T08:18:47.774Z,6.33
2019-02-08T08:21:56.154Z,6.23
2019-02-08T08:25:04.524Z,6.23
2019-02-08T08:28:11.423Z,6.19
2019-02-08T08:31:19.764Z,6.26
2019-02-08T08:34:28.180Z,6.21
2019-02-08T08:37:36.528Z,6.22
2019-02-08T08:40:43.569Z,6.24
2019-02-08T08:43:50.586Z,6.36
2019-02-08T08:46:57.629Z,6.51
2019-02-08T08:50:04.640Z,6.51
2019-02-08T08:53:13.104Z,6.56
2019-02-08T08:56:21.508Z,6.59
2019-02-08T08:59:29.407Z,6.66
2019-02-08T09:02:37.792Z,6.59
2019-02-08T09:05:44.914Z,6.72
2019-02-08T09:08:51.956Z,6.55
2019-02-08T09:12:00.388Z,6.54
2019-02-08T09:15:08.735Z,6.61
2019-02-08T09:18:15.989Z,6.69
2019-02-08T09:21:24.384Z,6.69
2019-02-08T09:24:31.430Z,6.84
2019-02-08T09:27:38.435Z,6.88
2019-02-08T09:30:45.480Z,6.97
2019-02-08T09:33:53.886Z,6.93
2019-02-08T09:37:02.311Z,6.81
2019-02-08T09:40:11.659Z,6.92
2019-02-08T09:43:19.487Z,7.03
2019-02-08T09:46:26.506Z,7.05
2019-02-08T09:49:33.543Z,7.18
2019-02-08T09:52:40.561Z,7.34
2019-02-08T09:55:49.001Z,7.19
2019-02-08T09:58:56.026Z,7.21
2019-02-08T10:02:04.429Z,7.34
2019-02-08T10:05:11.444Z,7.37
2019-02-08T10:08:19.989Z,7.53
2019-02-08T10:11:28.408Z,7.50
2019-02-08T10:14:36.771Z,7.48
2019-02-08T10:17:45.107Z,7.66
2019-02-08T10:20:52.151Z,7.72
2019-02-08T10:23:59.164Z,7.84
2019-02-08T10:27:07.533Z,7.94
2019-02-08T10:30:15.927Z,8.13
2019-02-08T10:33:23.003Z,8.29
2019-02-08T10:36:31.358Z,8.37
2019-02-08T10:39:38.407Z,8.12
2019-02-08T10:42:45.419Z,8.16
2019-02-08T10:45:52.525Z,8.14
2019-02-08T10:48:59.536Z,8.02
2019-02-08T10:52:06.580Z,8.36
2019-02-08T10:55:13.597Z,8.41
2019-02-08T10:58:20.723Z,8.34
2019-02-08T11:01:29.062Z,8.40
2019-02-08T11:04:36.181Z,8.33
2019-02-08T11:07:44.577Z,8.45
2019-02-08T11:10:51.719Z,8.53
2019-02-08T11:13:58.782Z,8.59
2019-02-08T11:17:05.853Z,8.72
2019-02-08T11:19:52.249Z,8.71
2019-02-08T11:24:54.274Z,8.65
2019-02-08T11:27:42.124Z,8.93
2019-02-08T11:30:50.465Z,8.71
2019-02-08T11:33:38.239Z,8.70
2019-02-08T11:36:46.579Z,8.66
2019-02-08T11:39:55.065Z,8.62
2019-02-08T11:42:42.809Z,8.76
2019-02-08T11:45:52.377Z,8.87
2019-02-08T11:48:21.509Z,8.84
2019-02-08T11:50:49.920Z,8.97
2019-02-08T11:53:37.644Z,8.90
2019-02-08T11:56:46.003Z,8.83
2019-02-08T11:59:14.500Z,8.70
2019-02-08T12:02:02.137Z,8.83
2019-02-08T12:12:35.155Z,8.88
2019-02-08T12:18:18.687Z,8.85
2019-02-08T12:20:47.541Z,8.92
2019-02-08T12:23:35.358Z,8.92
2019-02-08T12:26:03.853Z,9.03
2019-02-08T12:29:12.223Z,9.04
2019-02-08T12:31:59.842Z,9.06
2019-02-08T12:37:02.714Z,9.10
2019-02-08T12:39:50.532Z,9.06
2019-02-08T12:42:18.965Z,9.20
2019-02-08T12:44:47.388Z,9.53
2019-02-08T12:47:15.848Z,9.35
2019-02-08T12:49:44.275Z,9.32
2019-02-08T12:52:12.696Z,9.31
2019-02-08T12:54:41.163Z,9.42
2019-02-08T12:57:28.908Z,9.36
2019-02-08T13:03:30.995Z,9.40
2019-02-08T13:05:59.452Z,9.31
2019-02-08T13:08:27.878Z,9.21
2019-02-08T13:10:56.306Z,9.15
2019-02-08T13:13:24.763Z,9.14
2019-02-08T13:16:12.426Z,8.97
2019-02-08T13:21:15.225Z,9.03
2019-02-08T13:23:43.652Z,9.01
2019-02-08T13:26:12.110Z,8.98
2019-02-08T13:28:40.548Z,8.84
2019-02-08T13:31:48.981Z,8.98
2019-02-08T13:34:17.403Z,8.87
2019-02-08T13:36:45.827Z,8.79
2019-02-08T13:39:33.579Z,8.71
2019-02-08T13:42:02.003Z,8.79
2019-02-08T13:44:30.428Z,8.63
2019-02-08T13:46:58.919Z,8.57
2019-02-08T13:49:34.628Z,8.55
2019-02-08T13:52:03.047Z,8.69
2019-02-08T13:54:31.566Z,8.60
2019-02-08T13:57:00.873Z,8.61
2019-02-08T14:02:25.350Z,8.69
2019-02-08T14:04:53.781Z,8.60
2019-02-08T14:07:22.307Z,8.47
2019-02-08T14:09:50.764Z,8.50
2019-02-08T14:12:19.187Z,8.49
2019-02-08T14:14:47.653Z,8.59
2019-02-08T14:17:35.335Z,8.55
2019-02-08T14:23:11.870Z,8.57
2019-02-08T14:25:40.297Z,8.49
2019-02-08T14:28:08.716Z,8.57
2019-02-08T14:30:56.515Z,8.49
2019-02-08T14:33:25.008Z,8.46
2019-02-08T14:36:12.692Z,8.53
2019-02-08T14:38:41.183Z,8.74
2019-02-08T14:41:28.844Z,8.64
2019-02-08T14:43:57.272Z,8.72
2019-02-08T14:46:45.053Z,8.78
2019-02-08T14:49:13.476Z,8.76
2019-02-08T14:51:41.971Z,8.72
2019-02-08T14:54:50.345Z,8.68
2019-02-08T14:57:18.792Z,8.75
2019-02-08T15:05:48.581Z,8.73
2019-02-08T15:11:30.753Z,8.84
2019-02-08T15:13:59.283Z,8.86
2019-02-08T15:16:27.775Z,8.97
2019-02-08T15:19:15.560Z,8.92
2019-02-08T15:21:44.011Z,8.92
2019-02-08T15:24:12.427Z,8.88
2019-02-08T15:26:40.877Z,8.88
2019-02-08T15:29:28.621Z,9.02
2019-02-08T15:31:57.089Z,8.97
2019-02-08T15:34:44.764Z,9.18
2019-02-08T15:37:32.516Z,8.83
2019-02-08T15:40:00.931Z,8.75
2019-02-08T15:42:29.361Z,8.76
2019-02-08T15:44:57.810Z,8.76
2019-02-08T15:47:45.510Z,8.80
2019-02-08T15:50:53.886Z,8.77
2019-02-08T15:59:44.642Z,8.69
2019-02-08T16:05:47.956Z,8.61
2019-02-08T16:08:35.705Z,8.61
2019-02-08T16:13:58.743Z,8.75
2019-02-08T16:16:46.359Z,8.70
2019-02-08T16:19:34.191Z,8.63
2019-02-08T16:22:02.615Z,8.60
2019-02-08T16:24:31.101Z,8.72
2019-02-08T16:29:33.409Z,8.54
2019-02-08T16:32:01.827Z,8.52
2019-02-08T16:34:49.631Z,8.56
2019-02-08T16:37:18.050Z,8.55
2019-02-08T16:39:46.474Z,8.52
2019-02-08T16:42:34.115Z,8.49
2019-02-08T16:45:21.873Z,8.48
2019-02-08T16:48:30.236Z,8.37
2019-02-08T16:50:58.657Z,8.44
2019-02-08T16:53:53.423Z,8.28
2019-02-08T16:56:16.574Z,8.19
2019-02-08T16:59:04.330Z,8.27
2019-02-08T17:01:32.819Z,8.21
2019-02-08T17:04:01.248Z,8.20
2019-02-08T17:07:09.613Z,8.15
2019-02-08T17:09:38.055Z,8.15
2019-02-08T17:14:59.442Z,8.25
2019-02-08T17:20:02.451Z,8.27
2019-02-08T17:25:44.861Z,8.40
2019-02-08T17:28:53.296Z,8.30
2019-02-08T17:31:21.723Z,8.31
2019-02-08T17:33:50.146Z,8.16
2019-02-08T17:38:52.870Z,8.21
2019-02-08T17:43:55.363Z,8.22
2019-02-08T17:46:23.842Z,8.16
2019-02-08T17:48:52.266Z,8.23
2019-02-08T17:51:20.708Z,8.39
2019-02-08T17:53:49.183Z,8.17
2019-02-08T17:56:17.602Z,8.18
2019-02-08T17:58:46.028Z,8.16
2019-02-08T18:03:48.571Z,8.15
2019-02-08T18:06:17.054Z,8.24
2019-02-08T18:08:45.473Z,8.10
2019-02-08T18:11:13.900Z,8.07
2019-02-08T18:13:42.380Z,8.14
2019-02-08T18:16:30.122Z,8.13
2019-02-08T18:18:58.592Z,8.03
2019-02-08T18:21:27.014Z,8.03
2019-02-08T18:23:55.443Z,7.98
2019-02-08T18:26:23.890Z,8.05
2019-02-08T18:28:52.310Z,8.02
2019-02-08T18:31:40.031Z,8.11
2019-02-08T18:34:08.554Z,8.16
2019-02-08T18:36:36.970Z,8.12
2019-02-08T18:39:45.429Z,8.13
2019-02-08T18:42:33.057Z,8.23
2019-02-08T18:45:20.793Z,8.17
2019-02-08T18:47:49.368Z,8.17
2019-02-08T18:50:56.450Z,8.22
2019-02-08T18:53:24.905Z,8.25
2019-02-08T18:55:53.434Z,8.28
2019-02-08T18:58:41.135Z,8.17
2019-02-08T19:01:28.911Z,8.15
2019-02-08T19:04:16.743Z,8.18
2019-02-08T19:07:04.534Z,8.20
2019-02-08T19:09:52.352Z,8.23
2019-02-08T19:12:20.817Z,8.30
2019-02-08T19:14:49.285Z,8.23
2019-02-08T19:17:37.635Z,8.20
2019-02-08T19:20:46.028Z,8.15
2019-02-08T19:23:33.686Z,8.11
2019-02-08T19:26:42.069Z,8.17
2019-02-08T19:32:03.657Z,8.12
2019-02-08T19:34:51.407Z,8.11
2019-02-08T19:37:39.190Z,8.08
2019-02-08T19:40:46.333Z,8.11
2019-02-08T19:43:34.179Z,8.11
2019-02-08T19:46:21.951Z,8.02
2019-02-08T19:49:09.734Z,8.02
2019-02-08T19:51:57.369Z,7.99
2019-02-08T19:54:26.377Z,8.05
2019-02-08T19:56:54.959Z,8.02
2019-02-08T19:59:23.909Z,7.96
2019-02-08T20:01:52.518Z,8.00
2019-02-08T20:13:18.271Z,8.07
2019-02-08T20:16:26.659Z,8.00
2019-02-08T20:19:14.562Z,8.14
2019-02-08T20:22:02.346Z,8.13
2019-02-08T20:24:31.001Z,8.18
2019-02-08T20:26:59.615Z,8.09
2019-02-08T20:29:47.500Z,8.18
2019-02-08T20:32:35.284Z,8.34
2019-02-08T20:38:18.051Z,8.26
2019-02-08T20:41:26.443Z,8.19
2019-02-08T20:43:55.095Z,8.29
2019-02-08T20:46:42.818Z,8.18
2019-02-08T20:52:24.268Z,8.17
2019-02-08T20:57:46.237Z,8.32
2019-02-08T21:00:55.658Z,8.24
2019-02-08T21:04:04.052Z,8.17
2019-02-08T21:06:51.774Z,8.09
2019-02-08T21:09:39.549Z,8.12
2019-02-08T21:12:27.492Z,8.20
2019-02-08T21:15:15.279Z,8.10
2019-02-08T21:17:55.544Z,8.09
2019-02-08T21:26:25.852Z,7.99
2019-02-08T21:29:13.764Z,7.89
2019-02-08T21:32:01.554Z,7.92
2019-02-08T21:34:49.423Z,7.93
2019-02-08T21:37:37.183Z,7.91
2019-02-08T21:40:44.334Z,7.91
2019-02-08T21:43:31.998Z,7.85
2019-02-08T21:46:19.813Z,7.82
2019-02-08T21:48:48.280Z,7.89
2019-02-08T21:51:36.163Z,7.91
2019-02-08T21:57:51.307Z,7.87
2019-02-08T22:00:59.747Z,7.99
2019-02-08T22:06:41.238Z,8.03
2019-02-08T22:15:16.999Z,7.76
2019-02-08T22:20:59.435Z,7.80
2019-02-08T22:23:47.002Z,7.78
2019-02-08T22:26:55.346Z,7.76
2019-02-08T22:29:23.808Z,7.67
2019-02-08T22:31:52.303Z,7.76
2019-02-08T22:34:20.719Z,7.79
2019-02-08T22:36:49.182Z,7.77
2019-02-08T22:39:17.678Z,7.82
2019-02-08T22:42:05.539Z,7.77
2019-02-08T22:44:33.959Z,7.76
2019-02-08T22:47:21.728Z,7.67
2019-02-08T22:49:50.156Z,7.69
2019-02-08T22:55:51.744Z,7.71
2019-02-08T22:58:20.192Z,7.87
2019-02-08T23:01:28.606Z,7.81
2019-02-08T23:04:16.451Z,7.78
2019-02-08T23:07:04.077Z,7.80
2019-02-08T23:09:32.535Z,7.82
2019-02-08T23:12:20.149Z,7.80
2019-02-08T23:14:48.593Z,7.76
2019-02-08T23:17:17.013Z,7.79
2019-02-08T23:19:45.433Z,7.85
2019-02-08T23:24:47.839Z,7.64
2019-02-08T23:27:16.334Z,7.69
2019-02-08T23:30:03.952Z,7.78
2019-02-08T23:32:32.397Z,7.86
2019-02-08T23:35:00.886Z,7.82
2019-02-08T23:37:29.306Z,8.04
2019-02-08T23:40:16.946Z,7.86
2019-02-08T23:42:45.501Z,7.71
2019-02-08T23:45:53.868Z,7.78
2019-02-08T23:48:41.610Z,7.86
2019-02-08T23:51:10.062Z,7.85
2019-02-08T23:53:38.482Z,7.84
2019-02-08T23:56:46.937Z,7.76
2019-02-08T23:59:15.353Z,7.88
